createdAt,value
2022-10-02T00:03:26.062Z,68.86
2022-10-02T00:08:33.614Z,68.68
2022-10-02T00:13:41.170Z,68.76
2022-10-02T00:18:43.801Z,68.52
2022-10-02T00:23:56.531Z,68.82
2022-10-02T00:29:00.839Z,68.41
2022-10-02T00:34:33.863Z,68.40
2022-10-02T00:39:53.805Z,68.51
2022-10-02T00:45:14.409Z,68.97
2022-10-02T00:50:32.879Z,68.77
2022-10-02T00:55:49.588Z,68.37
2022-10-02T01:01:17.244Z,68.27
2022-10-02T01:06:19.950Z,68.28
2022-10-02T01:11:24.153Z,68.42
2022-10-02T01:16:26.024Z,68.46
2022-10-02T01:21:42.269Z,68.18
2022-10-02T01:26:43.717Z,67.96
2022-10-02T01:31:45.128Z,67.98
2022-10-02T01:36:46.594Z,68.46
2022-10-02T01:41:48.095Z,68.12
2022-10-02T01:47:01.315Z,68.50
2022-10-02T01:52:22.369Z,68.26
2022-10-02T01:57:42.436Z,68.51
2022-10-02T02:03:02.723Z,68.11
2022-10-02T02:08:11.035Z,68.42
2022-10-02T02:13:31.953Z,68.49
2022-10-02T02:18:52.574Z,68.52
2022-10-02T02:23:56.695Z,68.31
2022-10-02T02:29:02.710Z,68.30
2022-10-02T02:34:11.634Z,68.46
2022-10-02T02:39:16.777Z,68.38
2022-10-02T02:44:18.276Z,68.30
2022-10-02T02:49:19.689Z,67.89
2022-10-02T02:54:31.133Z,67.90
2022-10-02T02:59:34.320Z,67.98
2022-10-02T03:04:35.721Z,67.73
2022-10-02T03:09:37.844Z,67.58
2022-10-02T03:14:58.069Z,67.55
2022-10-02T03:20:09.683Z,67.56
2022-10-02T03:25:19.612Z,67.73
2022-10-02T03:30:21.958Z,67.22
2022-10-02T03:35:25.168Z,67.45
2022-10-02T03:40:26.675Z,67.35
2022-10-02T03:45:50.077Z,66.92
2022-10-02T03:50:51.074Z,66.88
2022-10-02T03:55:57.795Z,66.63
2022-10-02T04:01:05.654Z,66.74
2022-10-02T04:06:18.985Z,66.63
2022-10-02T04:11:43.784Z,66.51
2022-10-02T04:16:57.994Z,66.79
2022-10-02T04:22:07.513Z,66.76
2022-10-02T04:27:14.696Z,66.62
2022-10-02T04:32:45.885Z,66.72
2022-10-02T04:38:02.573Z,66.80
2022-10-02T04:43:16.192Z,67.09
2022-10-02T04:48:28.280Z,66.88
2022-10-02T04:53:49.250Z,67.22
2022-10-02T04:59:07.963Z,67.24
2022-10-02T05:04:26.461Z,67.00
2022-10-02T05:09:37.410Z,67.33
2022-10-02T05:14:47.895Z,67.15
2022-10-02T05:20:09.715Z,66.96
2022-10-02T05:25:48.709Z,66.71
2022-10-02T05:30:53.213Z,67.44
2022-10-02T05:36:20.482Z,67.07
2022-10-02T05:41:31.310Z,67.39
2022-10-02T05:46:44.460Z,67.36
2022-10-02T05:52:10.098Z,67.38
2022-10-02T05:57:18.858Z,67.21
2022-10-02T06:03:02.725Z,67.41
2022-10-02T06:08:09.516Z,67.20
2022-10-02T06:13:19.327Z,67.48
2022-10-02T06:18:27.366Z,67.04
2022-10-02T06:23:39.510Z,67.05
2022-10-02T06:28:47.858Z,67.44
2022-10-02T06:33:52.181Z,67.44
2022-10-02T06:39:07.594Z,67.14
2022-10-02T06:44:37.303Z,67.22
2022-10-02T06:50:02.964Z,67.71
2022-10-02T06:55:46.203Z,67.58
2022-10-02T07:00:58.850Z,67.60
2022-10-02T07:06:33.717Z,67.68
2022-10-02T07:11:55.111Z,68.01
2022-10-02T07:17:14.777Z,67.71
2022-10-02T07:22:50.413Z,67.80
2022-10-02T07:28:19.834Z,67.54
2022-10-02T07:33:21.213Z,67.78
2022-10-02T07:39:03.377Z,68.00
2022-10-02T07:44:21.902Z,67.51
2022-10-02T07:49:33.091Z,67.64
2022-10-02T07:54:56.350Z,67.24
2022-10-02T08:00:05.761Z,67.33
2022-10-02T08:05:18.473Z,67.73
2022-10-02T08:10:25.761Z,67.92
2022-10-02T08:15:32.050Z,67.82
2022-10-02T08:20:41.593Z,67.44
2022-10-02T08:26:06.449Z,67.26
2022-10-02T08:31:13.148Z,67.20
2022-10-02T08:36:36.222Z,67.28
2022-10-02T08:41:43.849Z,67.48
2022-10-02T08:46:58.283Z,66.85
2022-10-02T08:52:37.308Z,66.09
2022-10-02T08:58:20.819Z,65.97
2022-10-02T09:03:52.087Z,64.75
2022-10-02T09:09:21.558Z,64.79
2022-10-02T09:14:58.779Z,64.41
2022-10-02T09:20:37.472Z,63.22
2022-10-02T09:25:53.798Z,62.92
2022-10-02T09:31:20.792Z,63.14
2022-10-02T09:36:42.566Z,63.07
2022-10-02T09:42:08.352Z,64.14
2022-10-02T09:47:36.892Z,64.72
2022-10-02T09:52:57.991Z,65.96
2022-10-02T09:58:37.190Z,67.22
2022-10-02T10:04:09.048Z,68.01
2022-10-02T10:09:44.633Z,69.02
2022-10-02T10:14:55.414Z,69.21
2022-10-02T10:20:30.959Z,69.18
2022-10-02T10:26:08.075Z,68.16
2022-10-02T10:31:40.750Z,67.45
2022-10-02T10:37:09.101Z,66.76
2022-10-02T10:42:50.211Z,66.57
2022-10-02T10:48:10.995Z,65.52
2022-10-02T10:53:34.869Z,63.77
2022-10-02T10:59:01.090Z,63.96
2022-10-02T11:04:26.545Z,62.70
2022-10-02T11:09:49.628Z,62.98
2022-10-02T11:15:13.096Z,62.71
2022-10-02T11:20:32.091Z,63.21
2022-10-02T11:25:55.497Z,62.74
2022-10-02T11:31:17.237Z,62.62
2022-10-02T11:36:56.537Z,62.95
2022-10-02T11:42:11.233Z,63.33
2022-10-02T11:47:28.654Z,64.16
2022-10-02T11:53:01.319Z,64.25
2022-10-02T11:58:17.456Z,64.48
2022-10-02T12:03:36.259Z,64.24
2022-10-02T12:09:18.298Z,64.57
2022-10-02T12:14:47.931Z,64.62
2022-10-02T12:20:23.551Z,64.63
2022-10-02T12:25:58.901Z,63.51
2022-10-02T12:31:20.719Z,63.75
2022-10-02T12:36:59.494Z,64.31
2022-10-02T12:42:16.389Z,64.47
2022-10-02T12:47:40.175Z,64.01
2022-10-02T12:53:20.043Z,63.74
2022-10-02T12:58:29.115Z,64.26
2022-10-02T13:03:53.582Z,64.57
2022-10-02T13:09:30.845Z,64.32
2022-10-02T13:14:35.557Z,64.03
2022-10-02T13:19:43.368Z,63.25
2022-10-02T13:25:01.855Z,63.00
2022-10-02T13:30:22.897Z,62.98
2022-10-02T13:35:44.798Z,62.66
2022-10-02T13:41:01.806Z,62.85
2022-10-02T13:46:41.490Z,62.80
2022-10-02T13:51:57.625Z,63.46
2022-10-02T13:57:08.269Z,63.74
2022-10-02T14:02:39.466Z,63.73
2022-10-02T14:08:05.764Z,63.83
2022-10-02T14:13:36.506Z,63.86
2022-10-02T14:18:44.813Z,63.67
2022-10-02T14:24:04.517Z,62.92
2022-10-02T14:29:29.171Z,62.56
2022-10-02T14:34:45.767Z,62.31
2022-10-02T14:39:49.230Z,61.99
2022-10-02T14:45:22.261Z,62.02
2022-10-02T14:50:37.121Z,61.95
2022-10-02T14:56:16.166Z,62.23
2022-10-02T15:01:22.371Z,62.13
2022-10-02T15:06:36.397Z,62.00
2022-10-02T15:11:51.069Z,62.14
2022-10-02T15:17:24.764Z,62.42
2022-10-02T15:22:39.518Z,62.75
2022-10-02T15:28:18.067Z,62.91
2022-10-02T15:34:03.444Z,62.92
2022-10-02T15:39:34.988Z,62.59
2022-10-02T15:45:30.966Z,62.93
2022-10-02T15:50:52.326Z,62.88
2022-10-02T15:56:13.955Z,63.01
2022-10-02T16:01:31.306Z,62.96
2022-10-02T16:06:37.254Z,62.87
2022-10-02T16:12:21.813Z,63.28
2022-10-02T16:17:38.545Z,63.15
2022-10-02T16:23:01.558Z,63.67
2022-10-02T16:28:32.280Z,63.83
2022-10-02T16:33:55.182Z,64.58
2022-10-02T16:39:26.062Z,64.83
2022-10-02T16:44:55.539Z,65.09
2022-10-02T16:50:16.731Z,65.27
2022-10-02T16:55:40.353Z,65.20
2022-10-02T17:00:59.183Z,65.87
2022-10-02T17:06:27.011Z,67.55
2022-10-02T17:11:34.769Z,68.15
2022-10-02T17:16:57.572Z,68.82
2022-10-02T17:22:05.394Z,69.29
2022-10-02T17:27:25.462Z,69.22
2022-10-02T17:32:56.537Z,69.78
2022-10-02T17:38:26.815Z,70.13
2022-10-02T17:43:42.048Z,70.41
2022-10-02T17:48:55.626Z,71.02
2022-10-02T17:54:34.446Z,70.76
2022-10-02T18:00:02.891Z,71.05
2022-10-02T18:05:29.470Z,70.89
2022-10-02T18:10:48.298Z,71.36
2022-10-02T18:16:22.206Z,71.03
2022-10-02T18:21:42.885Z,70.96
2022-10-02T18:26:47.395Z,71.26
2022-10-02T18:32:19.157Z,71.15
2022-10-02T18:37:32.014Z,70.31
2022-10-02T18:43:11.861Z,70.28
2022-10-02T18:48:51.828Z,69.85
2022-10-02T18:54:11.978Z,69.96
2022-10-02T18:59:35.890Z,69.49
2022-10-02T19:04:43.237Z,69.13
2022-10-02T19:09:45.969Z,69.55
2022-10-02T19:14:48.318Z,69.30
2022-10-02T19:19:49.761Z,69.19
2022-10-02T19:24:56.119Z,69.30
2022-10-02T19:30:01.195Z,68.88
2022-10-02T19:35:15.229Z,68.86
2022-10-02T19:40:19.400Z,69.16
2022-10-02T19:45:26.794Z,68.95
2022-10-02T19:50:40.288Z,68.78
2022-10-02T19:55:43.872Z,68.75
2022-10-02T20:00:45.416Z,68.69
2022-10-02T20:05:50.951Z,68.32
2022-10-02T20:11:00.851Z,68.71
2022-10-02T20:16:35.867Z,68.80
2022-10-02T20:21:44.484Z,68.54
2022-10-02T20:26:47.289Z,68.63
2022-10-02T20:32:02.148Z,68.74
2022-10-02T20:37:17.405Z,69.02
2022-10-02T20:42:25.022Z,69.26
2022-10-02T20:47:44.090Z,69.09
2022-10-02T20:53:14.422Z,69.03
2022-10-02T20:58:37.802Z,69.42
2022-10-02T21:09:46.333Z,69.38
2022-10-02T21:15:19.335Z,69.43
2022-10-02T21:20:46.221Z,69.51
2022-10-02T21:26:26.953Z,69.54
2022-10-02T21:32:07.026Z,69.49
2022-10-02T21:37:25.635Z,69.49
2022-10-02T21:42:46.604Z,69.49
2022-10-02T21:48:12.766Z,69.42
2022-10-02T21:53:33.083Z,69.92
2022-10-02T21:58:52.954Z,69.52
2022-10-02T22:04:33.742Z,69.80
2022-10-02T22:09:50.587Z,69.68
2022-10-02T22:15:29.763Z,69.48
2022-10-02T22:20:47.970Z,69.67
2022-10-02T22:26:25.040Z,69.41
2022-10-02T22:31:50.965Z,69.36
2022-10-02T22:37:11.641Z,69.41
2022-10-02T22:42:32.463Z,69.50
2022-10-02T22:47:54.097Z,69.48
2022-10-02T22:53:04.874Z,69.83
2022-10-02T22:58:14.970Z,70.15
2022-10-02T23:03:20.565Z,69.87
2022-10-02T23:08:29.493Z,70.13
2022-10-02T23:13:43.150Z,69.86
2022-10-02T23:19:00.710Z,70.30
2022-10-02T23:24:23.487Z,70.49
2022-10-02T23:29:33.942Z,70.51
2022-10-02T23:35:02.450Z,70.50
2022-10-02T23:40:47.114Z,70.96
2022-10-02T23:45:58.175Z,70.88
2022-10-02T23:51:15.265Z,70.93
2022-10-02T23:57:08.867Z,70.89
